sensor_id;sensor_type;location;lat;lon;timestamp;P1;durP1;ratioP1;P2;durP2;ratioP2
71914;SDS011;60387;49.994;14.660;2022-11-15T00:02:31;41.33;;;16.40;;
71914;SDS011;60387;49.994;14.660;2022-11-15T00:05:05;46.63;;;18.00;;
71914;SDS011;60387;49.994;14.660;2022-11-15T00:07:38;45.50;;;17.83;;
71914;SDS011;60387;49.994;14.660;2022-11-15T00:10:11;51.00;;;17.10;;
71914;SDS011;60387;49.994;14.660;2022-11-15T00:12:45;45.47;;;17.77;;
71914;SDS011;60387;49.994;14.660;2022-11-15T00:15:18;48.33;;;19.83;;
71914;SDS011;60387;49.994;14.660;2022-11-15T00:17:51;47.97;;;19.13;;
71914;SDS011;60387;49.994;14.660;2022-11-15T00:20:25;46.40;;;18.87;;
71914;SDS011;60387;49.994;14.660;2022-11-15T00:22:58;44.90;;;17.33;;
71914;SDS011;60387;49.994;14.660;2022-11-15T00:25:31;41.57;;;15.73;;
71914;SDS011;60387;49.994;14.660;2022-11-15T00:28:05;41.07;;;16.63;;
71914;SDS011;60387;49.994;14.660;2022-11-15T00:30:38;44.83;;;17.30;;
71914;SDS011;60387;49.994;14.660;2022-11-15T00:33:11;45.90;;;16.93;;
71914;SDS011;60387;49.994;14.660;2022-11-15T00:35:44;46.30;;;16.27;;
71914;SDS011;60387;49.994;14.660;2022-11-15T00:38:18;41.53;;;15.60;;
71914;SDS011;60387;49.994;14.660;2022-11-15T00:40:51;43.40;;;15.10;;
71914;SDS011;60387;49.994;14.660;2022-11-15T00:43:24;41.07;;;16.57;;
71914;SDS011;60387;49.994;14.660;2022-11-15T00:45:58;39.63;;;16.23;;
71914;SDS011;60387;49.994;14.660;2022-11-15T00:48:31;42.97;;;15.23;;
71914;SDS011;60387;49.994;14.660;2022-11-15T00:51:05;46.17;;;16.83;;
71914;SDS011;60387;49.994;14.660;2022-11-15T00:53:41;50.72;;;17.05;;
71914;SDS011;60387;49.994;14.660;2022-11-15T00:56:14;49.17;;;16.67;;
71914;SDS011;60387;49.994;14.660;2022-11-15T00:58:47;43.80;;;16.80;;
71914;SDS011;60387;49.994;14.660;2022-11-15T01:01:20;49.63;;;18.13;;
71914;SDS011;60387;49.994;14.660;2022-11-15T01:03:54;43.63;;;16.10;;
71914;SDS011;60387;49.994;14.660;2022-11-15T01:06:27;51.40;;;17.53;;
71914;SDS011;60387;49.994;14.660;2022-11-15T01:09:00;45.53;;;16.87;;
71914;SDS011;60387;49.994;14.660;2022-11-15T01:11:34;48.23;;;17.40;;
71914;SDS011;60387;49.994;14.660;2022-11-15T01:14:07;48.97;;;17.87;;
71914;SDS011;60387;49.994;14.660;2022-11-15T01:16:40;45.60;;;16.43;;
71914;SDS011;60387;49.994;14.660;2022-11-15T01:19:14;45.17;;;16.07;;
71914;SDS011;60387;49.994;14.660;2022-11-15T01:21:50;43.50;;;16.50;;
71914;SDS011;60387;49.994;14.660;2022-11-15T01:24:24;40.92;;;14.63;;
71914;SDS011;60387;49.994;14.660;2022-11-15T01:26:57;39.60;;;16.60;;
71914;SDS011;60387;49.994;14.660;2022-11-15T01:29:31;40.57;;;16.13;;
71914;SDS011;60387;49.994;14.660;2022-11-15T01:32:04;44.58;;;16.30;;
71914;SDS011;60387;49.994;14.660;2022-11-15T01:34:37;45.73;;;16.80;;
71914;SDS011;60387;49.994;14.660;2022-11-15T01:37:10;46.77;;;16.20;;
71914;SDS011;60387;49.994;14.660;2022-11-15T01:39:44;40.10;;;15.17;;
71914;SDS011;60387;49.994;14.660;2022-11-15T01:42:17;42.90;;;16.47;;
71914;SDS011;60387;49.994;14.660;2022-11-15T01:44:51;44.97;;;16.23;;
71914;SDS011;60387;49.994;14.660;2022-11-15T01:47:26;46.53;;;15.52;;
71914;SDS011;60387;49.994;14.660;2022-11-15T01:50:05;48.92;;;17.05;;
71914;SDS011;60387;49.994;14.660;2022-11-15T01:52:41;45.07;;;17.00;;
71914;SDS011;60387;49.994;14.660;2022-11-15T01:55:19;52.67;;;18.83;;
71914;SDS011;60387;49.994;14.660;2022-11-15T01:57:57;49.78;;;17.00;;
71914;SDS011;60387;49.994;14.660;2022-11-15T02:00:34;40.97;;;15.88;;
71914;SDS011;60387;49.994;14.660;2022-11-15T02:03:08;50.23;;;17.37;;
71914;SDS011;60387;49.994;14.660;2022-11-15T02:05:41;43.60;;;16.70;;
71914;SDS011;60387;49.994;14.660;2022-11-15T02:08:16;48.83;;;17.88;;
71914;SDS011;60387;49.994;14.660;2022-11-15T02:10:49;45.93;;;16.93;;
71914;SDS011;60387;49.994;14.660;2022-11-15T02:13:22;50.10;;;17.17;;
71914;SDS011;60387;49.994;14.660;2022-11-15T02:18:52;53.63;;;17.52;;
71914;SDS011;60387;49.994;14.660;2022-11-15T02:21:43;43.25;;;15.77;;
71914;SDS011;60387;49.994;14.660;2022-11-15T02:36:18;134.40;;;20.33;;
71914;SDS011;60387;49.994;14.660;2022-11-15T02:41:50;104.57;;;19.63;;
71914;SDS011;60387;49.994;14.660;2022-11-15T02:44:40;242.67;;;22.93;;
71914;SDS011;60387;49.994;14.660;2022-11-15T02:47:18;181.10;;;21.60;;
71914;SDS011;60387;49.994;14.660;2022-11-15T02:49:53;170.10;;;19.92;;
71914;SDS011;60387;49.994;14.660;2022-11-15T02:52:29;190.55;;;18.95;;
71914;SDS011;60387;49.994;14.660;2022-11-15T02:55:03;168.57;;;20.00;;
71914;SDS011;60387;49.994;14.660;2022-11-15T02:57:51;168.03;;;20.77;;
71914;SDS011;60387;49.994;14.660;2022-11-15T03:00:27;116.20;;;18.75;;
71914;SDS011;60387;49.994;14.660;2022-11-15T03:03:12;85.00;;;17.13;;
71914;SDS011;60387;49.994;14.660;2022-11-15T03:06:23;175.73;;;18.40;;
71914;SDS011;60387;49.994;14.660;2022-11-15T03:11:53;152.10;;;19.35;;
71914;SDS011;60387;49.994;14.660;2022-11-15T03:14:38;142.38;;;21.92;;
71914;SDS011;60387;49.994;14.660;2022-11-15T03:17:23;119.93;;;17.73;;
71914;SDS011;60387;49.994;14.660;2022-11-15T03:20:01;89.85;;;19.23;;
71914;SDS011;60387;49.994;14.660;2022-11-15T03:22:38;167.90;;;21.20;;
71914;SDS011;60387;49.994;14.660;2022-11-15T03:25:17;140.65;;;20.50;;
71914;SDS011;60387;49.994;14.660;2022-11-15T03:27:55;91.35;;;18.73;;
71914;SDS011;60387;49.994;14.660;2022-11-15T03:30:32;71.63;;;18.20;;
71914;SDS011;60387;49.994;14.660;2022-11-15T03:33:10;43.30;;;16.75;;
71914;SDS011;60387;49.994;14.660;2022-11-15T03:35:44;67.13;;;15.83;;
71914;SDS011;60387;49.994;14.660;2022-11-15T03:38:25;61.45;;;17.17;;
71914;SDS011;60387;49.994;14.660;2022-11-15T03:41:00;71.10;;;16.48;;
71914;SDS011;60387;49.994;14.660;2022-11-15T03:46:31;66.43;;;15.73;;
71914;SDS011;60387;49.994;14.660;2022-11-15T03:52:02;67.88;;;16.10;;
71914;SDS011;60387;49.994;14.660;2022-11-15T03:54:44;46.50;;;15.88;;
71914;SDS011;60387;49.994;14.660;2022-11-15T03:57:21;52.38;;;16.17;;
71914;SDS011;60387;49.994;14.660;2022-11-15T03:59:55;47.55;;;15.77;;
71914;SDS011;60387;49.994;14.660;2022-11-15T04:02:28;57.57;;;16.60;;
71914;SDS011;60387;49.994;14.660;2022-11-15T04:05:01;46.40;;;15.10;;
71914;SDS011;60387;49.994;14.660;2022-11-15T04:07:35;41.70;;;14.50;;
71914;SDS011;60387;49.994;14.660;2022-11-15T04:10:12;52.45;;;14.93;;
71914;SDS011;60387;49.994;14.660;2022-11-15T04:12:46;53.43;;;15.47;;
71914;SDS011;60387;49.994;14.660;2022-11-15T04:15:20;46.88;;;14.40;;
71914;SDS011;60387;49.994;14.660;2022-11-15T04:17:56;51.50;;;15.13;;
71914;SDS011;60387;49.994;14.660;2022-11-15T04:20:30;50.17;;;15.13;;
71914;SDS011;60387;49.994;14.660;2022-11-15T04:23:05;37.85;;;14.23;;
71914;SDS011;60387;49.994;14.660;2022-11-15T04:25:39;47.35;;;14.68;;
71914;SDS011;60387;49.994;14.660;2022-11-15T04:28:14;41.67;;;14.52;;
71914;SDS011;60387;49.994;14.660;2022-11-15T04:30:47;39.40;;;12.77;;
71914;SDS011;60387;49.994;14.660;2022-11-15T04:33:21;40.33;;;13.63;;
71914;SDS011;60387;49.994;14.660;2022-11-15T04:35:54;34.93;;;13.30;;
71914;SDS011;60387;49.994;14.660;2022-11-15T04:38:28;37.92;;;14.02;;
71914;SDS011;60387;49.994;14.660;2022-11-15T04:41:01;38.88;;;13.68;;
71914;SDS011;60387;49.994;14.660;2022-11-15T04:43:34;39.22;;;15.18;;
71914;SDS011;60387;49.994;14.660;2022-11-15T04:46:08;52.23;;;21.77;;
71914;SDS011;60387;49.994;14.660;2022-11-15T04:48:41;50.53;;;17.57;;
71914;SDS011;60387;49.994;14.660;2022-11-15T04:51:14;71.97;;;22.93;;
71914;SDS011;60387;49.994;14.660;2022-11-15T04:53:47;206.33;;;54.57;;
71914;SDS011;60387;49.994;14.660;2022-11-15T04:56:21;101.37;;;31.90;;
71914;SDS011;60387;49.994;14.660;2022-11-15T04:58:54;86.83;;;33.67;;
71914;SDS011;60387;49.994;14.660;2022-11-15T05:01:27;54.13;;;19.93;;
71914;SDS011;60387;49.994;14.660;2022-11-15T05:04:00;44.77;;;17.57;;
71914;SDS011;60387;49.994;14.660;2022-11-15T05:06:34;44.67;;;17.10;;
71914;SDS011;60387;49.994;14.660;2022-11-15T05:09:07;41.03;;;18.80;;
71914;SDS011;60387;49.994;14.660;2022-11-15T05:11:41;36.33;;;13.70;;
71914;SDS011;60387;49.994;14.660;2022-11-15T05:14:14;39.05;;;15.20;;
71914;SDS011;60387;49.994;14.660;2022-11-15T05:16:48;29.67;;;12.73;;
71914;SDS011;60387;49.994;14.660;2022-11-15T05:19:21;27.63;;;11.10;;
71914;SDS011;60387;49.994;14.660;2022-11-15T05:21:54;34.60;;;13.93;;
71914;SDS011;60387;49.994;14.660;2022-11-15T05:24:28;31.60;;;13.03;;
71914;SDS011;60387;49.994;14.660;2022-11-15T05:27:01;31.23;;;11.27;;
71914;SDS011;60387;49.994;14.660;2022-11-15T05:29:34;32.87;;;12.87;;
71914;SDS011;60387;49.994;14.660;2022-11-15T05:32:08;24.13;;;8.30;;
71914;SDS011;60387;49.994;14.660;2022-11-15T05:34:42;27.35;;;9.02;;
71914;SDS011;60387;49.994;14.660;2022-11-15T05:37:16;33.08;;;11.63;;
71914;SDS011;60387;49.994;14.660;2022-11-15T05:39:50;31.47;;;11.87;;
71914;SDS011;60387;49.994;14.660;2022-11-15T05:42:23;40.90;;;13.43;;
71914;SDS011;60387;49.994;14.660;2022-11-15T05:44:59;29.65;;;11.43;;
71914;SDS011;60387;49.994;14.660;2022-11-15T05:47:35;28.98;;;11.82;;
71914;SDS011;60387;49.994;14.660;2022-11-15T05:50:13;31.95;;;11.32;;
71914;SDS011;60387;49.994;14.660;2022-11-15T05:52:48;26.85;;;11.18;;
71914;SDS011;60387;49.994;14.660;2022-11-15T05:55:22;26.87;;;10.57;;
71914;SDS011;60387;49.994;14.660;2022-11-15T05:57:55;24.27;;;9.50;;
71914;SDS011;60387;49.994;14.660;2022-11-15T06:00:29;27.07;;;10.43;;
71914;SDS011;60387;49.994;14.660;2022-11-15T06:03:02;27.33;;;10.10;;
71914;SDS011;60387;49.994;14.660;2022-11-15T06:05:35;26.52;;;9.48;;
71914;SDS011;60387;49.994;14.660;2022-11-15T06:08:09;28.17;;;10.67;;
71914;SDS011;60387;49.994;14.660;2022-11-15T06:10:42;30.57;;;11.90;;
71914;SDS011;60387;49.994;14.660;2022-11-15T06:13:15;27.10;;;10.43;;
71914;SDS011;60387;49.994;14.660;2022-11-15T06:15:48;25.47;;;10.13;;
71914;SDS011;60387;49.994;14.660;2022-11-15T06:18:22;67.33;;;12.47;;
71914;SDS011;60387;49.994;14.660;2022-11-15T06:20:58;63.27;;;12.07;;
71914;SDS011;60387;49.994;14.660;2022-11-15T06:23:32;56.60;;;13.18;;
71914;SDS011;60387;49.994;14.660;2022-11-15T06:26:06;67.90;;;14.77;;
71914;SDS011;60387;49.994;14.660;2022-11-15T06:28:39;58.08;;;12.38;;
71914;SDS011;60387;49.994;14.660;2022-11-15T06:31:12;71.97;;;12.85;;
71914;SDS011;60387;49.994;14.660;2022-11-15T06:33:46;75.23;;;13.57;;
71914;SDS011;60387;49.994;14.660;2022-11-15T06:36:19;46.23;;;12.83;;
71914;SDS011;60387;49.994;14.660;2022-11-15T06:38:53;55.20;;;12.63;;
71914;SDS011;60387;49.994;14.660;2022-11-15T06:41:26;104.73;;;14.03;;
71914;SDS011;60387;49.994;14.660;2022-11-15T06:43:59;73.83;;;12.73;;
71914;SDS011;60387;49.994;14.660;2022-11-15T06:46:32;61.63;;;12.90;;
71914;SDS011;60387;49.994;14.660;2022-11-15T06:49:06;57.47;;;13.20;;
71914;SDS011;60387;49.994;14.660;2022-11-15T06:51:39;36.43;;;11.40;;
71914;SDS011;60387;49.994;14.660;2022-11-15T06:54:12;61.93;;;12.53;;
71914;SDS011;60387;49.994;14.660;2022-11-15T06:56:46;34.37;;;12.63;;
71914;SDS011;60387;49.994;14.660;2022-11-15T06:59:19;31.60;;;12.57;;
71914;SDS011;60387;49.994;14.660;2022-11-15T07:01:52;31.02;;;10.75;;
71914;SDS011;60387;49.994;14.660;2022-11-15T07:04:25;30.00;;;10.00;;
71914;SDS011;60387;49.994;14.660;2022-11-15T07:06:59;25.60;;;10.00;;
71914;SDS011;60387;49.994;14.660;2022-11-15T07:09:32;22.65;;;9.05;;
71914;SDS011;60387;49.994;14.660;2022-11-15T07:12:05;33.67;;;9.47;;
71914;SDS011;60387;49.994;14.660;2022-11-15T07:14:39;25.33;;;9.53;;
71914;SDS011;60387;49.994;14.660;2022-11-15T07:17:12;26.90;;;9.63;;
71914;SDS011;60387;49.994;14.660;2022-11-15T07:19:45;52.67;;;10.40;;
71914;SDS011;60387;49.994;14.660;2022-11-15T07:22:19;27.90;;;10.60;;
71914;SDS011;60387;49.994;14.660;2022-11-15T07:24:52;28.13;;;9.27;;
71914;SDS011;60387;49.994;14.660;2022-11-15T07:27:25;30.90;;;9.33;;
71914;SDS011;60387;49.994;14.660;2022-11-15T07:29:58;33.90;;;9.90;;
71914;SDS011;60387;49.994;14.660;2022-11-15T07:32:32;25.33;;;9.07;;
71914;SDS011;60387;49.994;14.660;2022-11-15T07:35:05;23.88;;;8.68;;
71914;SDS011;60387;49.994;14.660;2022-11-15T07:37:39;20.40;;;7.82;;
71914;SDS011;60387;49.994;14.660;2022-11-15T07:40:12;23.13;;;9.43;;
71914;SDS011;60387;49.994;14.660;2022-11-15T07:42:45;32.23;;;9.53;;
71914;SDS011;60387;49.994;14.660;2022-11-15T07:45:19;26.67;;;10.33;;
71914;SDS011;60387;49.994;14.660;2022-11-15T07:47:54;26.58;;;9.60;;
71914;SDS011;60387;49.994;14.660;2022-11-15T07:50:27;23.83;;;9.25;;
71914;SDS011;60387;49.994;14.660;2022-11-15T07:53:01;23.23;;;9.13;;
71914;SDS011;60387;49.994;14.660;2022-11-15T07:55:34;26.07;;;9.47;;
71914;SDS011;60387;49.994;14.660;2022-11-15T07:58:11;23.33;;;8.70;;
71914;SDS011;60387;49.994;14.660;2022-11-15T08:00:44;26.23;;;8.60;;
71914;SDS011;60387;49.994;14.660;2022-11-15T08:03:18;29.13;;;11.10;;
71914;SDS011;60387;49.994;14.660;2022-11-15T08:05:51;24.87;;;9.00;;
71914;SDS011;60387;49.994;14.660;2022-11-15T08:08:24;22.50;;;9.37;;
71914;SDS011;60387;49.994;14.660;2022-11-15T08:10:58;23.60;;;9.17;;
71914;SDS011;60387;49.994;14.660;2022-11-15T08:13:31;26.33;;;9.37;;
71914;SDS011;60387;49.994;14.660;2022-11-15T08:16:05;23.33;;;9.23;;
71914;SDS011;60387;49.994;14.660;2022-11-15T08:18:38;24.40;;;9.27;;
71914;SDS011;60387;49.994;14.660;2022-11-15T08:21:12;24.90;;;9.80;;
71914;SDS011;60387;49.994;14.660;2022-11-15T08:23:50;25.80;;;10.77;;
71914;SDS011;60387;49.994;14.660;2022-11-15T08:26:23;27.45;;;9.82;;
71914;SDS011;60387;49.994;14.660;2022-11-15T08:28:56;25.02;;;9.93;;
71914;SDS011;60387;49.994;14.660;2022-11-15T08:31:30;27.17;;;10.10;;
71914;SDS011;60387;49.994;14.660;2022-11-15T08:34:03;22.10;;;9.27;;
71914;SDS011;60387;49.994;14.660;2022-11-15T08:36:37;30.70;;;11.27;;
71914;SDS011;60387;49.994;14.660;2022-11-15T08:39:11;24.40;;;10.60;;
71914;SDS011;60387;49.994;14.660;2022-11-15T08:41:44;25.38;;;9.05;;
71914;SDS011;60387;49.994;14.660;2022-11-15T08:44:17;24.07;;;10.17;;
71914;SDS011;60387;49.994;14.660;2022-11-15T08:46:51;26.10;;;10.10;;
71914;SDS011;60387;49.994;14.660;2022-11-15T08:49:24;23.77;;;9.23;;
71914;SDS011;60387;49.994;14.660;2022-11-15T08:51:57;33.50;;;9.63;;
71914;SDS011;60387;49.994;14.660;2022-11-15T08:54:30;48.60;;;8.47;;
71914;SDS011;60387;49.994;14.660;2022-11-15T08:57:04;31.27;;;9.00;;
71914;SDS011;60387;49.994;14.660;2022-11-15T08:59:37;36.70;;;9.73;;
71914;SDS011;60387;49.994;14.660;2022-11-15T09:02:11;32.20;;;8.83;;
71914;SDS011;60387;49.994;14.660;2022-11-15T09:04:48;58.15;;;9.15;;
71914;SDS011;60387;49.994;14.660;2022-11-15T09:07:21;33.97;;;9.73;;
71914;SDS011;60387;49.994;14.660;2022-11-15T09:09:54;27.50;;;9.60;;
71914;SDS011;60387;49.994;14.660;2022-11-15T09:12:28;35.80;;;10.13;;
71914;SDS011;60387;49.994;14.660;2022-11-15T09:15:01;30.07;;;10.90;;
71914;SDS011;60387;49.994;14.660;2022-11-15T09:17:35;30.13;;;12.05;;
71914;SDS011;60387;49.994;14.660;2022-11-15T09:20:08;64.10;;;9.13;;
71914;SDS011;60387;49.994;14.660;2022-11-15T09:22:42;73.63;;;9.43;;
71914;SDS011;60387;49.994;14.660;2022-11-15T09:25:16;61.27;;;9.53;;
71914;SDS011;60387;49.994;14.660;2022-11-15T09:27:49;50.23;;;10.60;;
71914;SDS011;60387;49.994;14.660;2022-11-15T09:30:23;73.63;;;11.00;;
71914;SDS011;60387;49.994;14.660;2022-11-15T09:32:57;88.70;;;11.33;;
71914;SDS011;60387;49.994;14.660;2022-11-15T09:35:30;50.60;;;10.10;;
71914;SDS011;60387;49.994;14.660;2022-11-15T09:38:04;32.20;;;9.48;;
71914;SDS011;60387;49.994;14.660;2022-11-15T09:40:37;37.43;;;10.73;;
71914;SDS011;60387;49.994;14.660;2022-11-15T09:46:15;61.53;;;10.23;;
71914;SDS011;60387;49.994;14.660;2022-11-15T09:49:01;29.27;;;10.88;;
71914;SDS011;60387;49.994;14.660;2022-11-15T09:51:39;44.50;;;11.80;;
71914;SDS011;60387;49.994;14.660;2022-11-15T09:57:44;28.03;;;10.50;;
71914;SDS011;60387;49.994;14.660;2022-11-15T10:00:08;27.63;;;10.63;;
71914;SDS011;60387;49.994;14.660;2022-11-15T10:05:44;30.42;;;11.35;;
71914;SDS011;60387;49.994;14.660;2022-11-15T10:10:59;30.87;;;11.60;;
71914;SDS011;60387;49.994;14.660;2022-11-15T10:13:35;36.50;;;12.63;;
71914;SDS011;60387;49.994;14.660;2022-11-15T10:16:21;31.50;;;12.55;;
71914;SDS011;60387;49.994;14.660;2022-11-15T10:22:11;33.33;;;12.48;;
71914;SDS011;60387;49.994;14.660;2022-11-15T10:27:35;27.07;;;11.57;;
71914;SDS011;60387;49.994;14.660;2022-11-15T10:30:13;30.20;;;11.15;;
71914;SDS011;60387;49.994;14.660;2022-11-15T10:32:48;30.93;;;11.87;;
71914;SDS011;60387;49.994;14.660;2022-11-15T10:35:26;31.20;;;11.52;;
71914;SDS011;60387;49.994;14.660;2022-11-15T10:38:07;31.40;;;11.77;;
71914;SDS011;60387;49.994;14.660;2022-11-15T10:40:44;26.00;;;10.70;;
71914;SDS011;60387;49.994;14.660;2022-11-15T10:43:18;28.93;;;11.43;;
71914;SDS011;60387;49.994;14.660;2022-11-15T10:45:51;30.87;;;10.77;;
71914;SDS011;60387;49.994;14.660;2022-11-15T10:48:25;27.73;;;10.77;;
71914;SDS011;60387;49.994;14.660;2022-11-15T10:50:58;32.08;;;13.40;;
71914;SDS011;60387;49.994;14.660;2022-11-15T10:53:33;37.03;;;10.90;;
71914;SDS011;60387;49.994;14.660;2022-11-15T10:56:16;27.10;;;10.32;;
71914;SDS011;60387;49.994;14.660;2022-11-15T10:58:57;31.33;;;11.23;;
71914;SDS011;60387;49.994;14.660;2022-11-15T11:01:31;31.05;;;11.30;;
71914;SDS011;60387;49.994;14.660;2022-11-15T11:04:18;32.60;;;11.85;;
71914;SDS011;60387;49.994;14.660;2022-11-15T11:06:58;28.17;;;11.03;;
71914;SDS011;60387;49.994;14.660;2022-11-15T11:09:38;29.65;;;11.18;;
71914;SDS011;60387;49.994;14.660;2022-11-15T11:12:12;32.90;;;12.15;;
71914;SDS011;60387;49.994;14.660;2022-11-15T11:14:45;30.63;;;10.47;;
71914;SDS011;60387;49.994;14.660;2022-11-15T11:20:29;29.03;;;11.53;;
71914;SDS011;60387;49.994;14.660;2022-11-15T11:37:33;33.27;;;11.47;;
71914;SDS011;60387;49.994;14.660;2022-11-15T11:49:59;27.60;;;10.98;;
71914;SDS011;60387;49.994;14.660;2022-11-15T11:55:02;30.80;;;10.17;;
71914;SDS011;60387;49.994;14.660;2022-11-15T11:58:21;31.90;;;10.75;;
71914;SDS011;60387;49.994;14.660;2022-11-15T12:00:59;31.48;;;10.35;;
71914;SDS011;60387;49.994;14.660;2022-11-15T12:06:42;29.08;;;11.43;;
71914;SDS011;60387;49.994;14.660;2022-11-15T12:09:30;32.13;;;11.13;;
71914;SDS011;60387;49.994;14.660;2022-11-15T12:12:11;35.03;;;10.10;;
71914;SDS011;60387;49.994;14.660;2022-11-15T12:14:51;38.72;;;10.73;;
71914;SDS011;60387;49.994;14.660;2022-11-15T12:17:38;27.10;;;9.50;;
71914;SDS011;60387;49.994;14.660;2022-11-15T12:25:38;29.40;;;9.48;;
71914;SDS011;60387;49.994;14.660;2022-11-15T12:28:37;28.05;;;9.48;;
71914;SDS011;60387;49.994;14.660;2022-11-15T12:36:54;32.10;;;9.27;;
71914;SDS011;60387;49.994;14.660;2022-11-15T12:42:43;35.47;;;10.50;;
71914;SDS011;60387;49.994;14.660;2022-11-15T12:45:36;29.67;;;8.45;;
71914;SDS011;60387;49.994;14.660;2022-11-15T12:48:57;40.28;;;9.52;;
71914;SDS011;60387;49.994;14.660;2022-11-15T12:51:07;32.42;;;10.35;;
71914;SDS011;60387;49.994;14.660;2022-11-15T12:53:41;41.03;;;9.23;;
71914;SDS011;60387;49.994;14.660;2022-11-15T12:58:55;31.17;;;10.87;;
71914;SDS011;60387;49.994;14.660;2022-11-15T13:06:52;30.42;;;9.73;;
71914;SDS011;60387;49.994;14.660;2022-11-15T13:12:09;38.70;;;11.73;;
71914;SDS011;60387;49.994;14.660;2022-11-15T13:14:45;31.50;;;10.48;;
71914;SDS011;60387;49.994;14.660;2022-11-15T13:22:40;50.05;;;10.95;;
71914;SDS011;60387;49.994;14.660;2022-11-15T13:25:16;57.03;;;11.85;;
71914;SDS011;60387;49.994;14.660;2022-11-15T13:27:57;43.33;;;10.67;;
71914;SDS011;60387;49.994;14.660;2022-11-15T13:30:30;33.10;;;10.88;;
71914;SDS011;60387;49.994;14.660;2022-11-15T13:33:13;34.40;;;11.30;;
71914;SDS011;60387;49.994;14.660;2022-11-15T13:35:50;74.07;;;11.32;;
71914;SDS011;60387;49.994;14.660;2022-11-15T13:38:31;36.17;;;11.80;;
71914;SDS011;60387;49.994;14.660;2022-11-15T13:41:14;34.47;;;12.35;;
71914;SDS011;60387;49.994;14.660;2022-11-15T13:43:52;40.83;;;10.13;;
71914;SDS011;60387;49.994;14.660;2022-11-15T13:49:09;34.63;;;11.77;;
71914;SDS011;60387;49.994;14.660;2022-11-15T13:51:44;46.78;;;11.35;;
71914;SDS011;60387;49.994;14.660;2022-11-15T13:54:23;64.88;;;11.38;;
71914;SDS011;60387;49.994;14.660;2022-11-15T13:59:53;61.58;;;10.05;;
71914;SDS011;60387;49.994;14.660;2022-11-15T14:02:31;28.65;;;9.95;;
71914;SDS011;60387;49.994;14.660;2022-11-15T14:05:16;50.10;;;11.27;;
71914;SDS011;60387;49.994;14.660;2022-11-15T14:07:57;42.75;;;10.75;;
71914;SDS011;60387;49.994;14.660;2022-11-15T14:10:32;38.67;;;11.10;;
71914;SDS011;60387;49.994;14.660;2022-11-15T14:13:31;26.88;;;9.75;;
71914;SDS011;60387;49.994;14.660;2022-11-15T14:18:49;82.90;;;11.85;;
71914;SDS011;60387;49.994;14.660;2022-11-15T14:21:23;69.07;;;11.98;;
71914;SDS011;60387;49.994;14.660;2022-11-15T14:26:53;47.40;;;10.20;;
71914;SDS011;60387;49.994;14.660;2022-11-15T14:29:27;57.43;;;12.23;;
71914;SDS011;60387;49.994;14.660;2022-11-15T14:32:10;46.28;;;12.32;;
71914;SDS011;60387;49.994;14.660;2022-11-15T14:34:48;32.53;;;11.73;;
71914;SDS011;60387;49.994;14.660;2022-11-15T14:37:26;41.50;;;10.68;;
71914;SDS011;60387;49.994;14.660;2022-11-15T14:40:02;49.30;;;11.32;;
71914;SDS011;60387;49.994;14.660;2022-11-15T14:42:37;52.23;;;10.37;;
71914;SDS011;60387;49.994;14.660;2022-11-15T14:45:11;60.10;;;11.70;;
71914;SDS011;60387;49.994;14.660;2022-11-15T14:47:47;54.00;;;10.93;;
71914;SDS011;60387;49.994;14.660;2022-11-15T14:50:21;82.97;;;11.90;;
71914;SDS011;60387;49.994;14.660;2022-11-15T14:52:54;63.77;;;11.67;;
71914;SDS011;60387;49.994;14.660;2022-11-15T14:55:32;75.38;;;15.68;;
71914;SDS011;60387;49.994;14.660;2022-11-15T14:58:07;83.13;;;13.52;;
71914;SDS011;60387;49.994;14.660;2022-11-15T15:00:41;59.15;;;12.70;;
71914;SDS011;60387;49.994;14.660;2022-11-15T15:03:14;102.93;;;11.20;;
71914;SDS011;60387;49.994;14.660;2022-11-15T15:05:47;79.20;;;11.93;;
71914;SDS011;60387;49.994;14.660;2022-11-15T15:08:21;56.57;;;11.60;;
71914;SDS011;60387;49.994;14.660;2022-11-15T15:10:54;40.23;;;11.87;;
71914;SDS011;60387;49.994;14.660;2022-11-15T15:13:27;78.73;;;14.03;;
71914;SDS011;60387;49.994;14.660;2022-11-15T15:16:01;45.13;;;11.97;;
71914;SDS011;60387;49.994;14.660;2022-11-15T15:18:34;85.13;;;12.37;;
71914;SDS011;60387;49.994;14.660;2022-11-15T15:21:26;72.00;;;10.17;;
71914;SDS011;60387;49.994;14.660;2022-11-15T15:24:00;76.75;;;10.95;;
71914;SDS011;60387;49.994;14.660;2022-11-15T15:26:33;45.70;;;12.00;;
71914;SDS011;60387;49.994;14.660;2022-11-15T15:29:07;38.03;;;10.60;;
71914;SDS011;60387;49.994;14.660;2022-11-15T15:31:40;88.27;;;32.50;;
71914;SDS011;60387;49.994;14.660;2022-11-15T15:34:13;45.50;;;15.30;;
71914;SDS011;60387;49.994;14.660;2022-11-15T15:36:46;38.87;;;12.43;;
71914;SDS011;60387;49.994;14.660;2022-11-15T15:39:20;39.53;;;13.27;;
71914;SDS011;60387;49.994;14.660;2022-11-15T15:41:53;50.90;;;12.23;;
71914;SDS011;60387;49.994;14.660;2022-11-15T15:44:26;56.57;;;11.33;;
71914;SDS011;60387;49.994;14.660;2022-11-15T15:47:00;40.00;;;12.40;;
71914;SDS011;60387;49.994;14.660;2022-11-15T15:49:33;53.60;;;13.47;;
71914;SDS011;60387;49.994;14.660;2022-11-15T15:52:06;69.30;;;13.67;;
71914;SDS011;60387;49.994;14.660;2022-11-15T15:54:39;36.67;;;11.37;;
71914;SDS011;60387;49.994;14.660;2022-11-15T15:57:13;46.10;;;12.47;;
71914;SDS011;60387;49.994;14.660;2022-11-15T15:59:47;46.95;;;11.98;;
71914;SDS011;60387;49.994;14.660;2022-11-15T16:02:20;37.83;;;12.40;;
71914;SDS011;60387;49.994;14.660;2022-11-15T16:04:53;35.37;;;11.67;;
71914;SDS011;60387;49.994;14.660;2022-11-15T16:07:26;62.47;;;13.87;;
71914;SDS011;60387;49.994;14.660;2022-11-15T16:10:00;65.00;;;13.13;;
71914;SDS011;60387;49.994;14.660;2022-11-15T16:12:34;67.07;;;12.17;;
71914;SDS011;60387;49.994;14.660;2022-11-15T16:15:07;33.80;;;12.30;;
71914;SDS011;60387;49.994;14.660;2022-11-15T16:17:43;39.97;;;13.03;;
71914;SDS011;60387;49.994;14.660;2022-11-15T16:23:14;49.00;;;17.25;;
71914;SDS011;60387;49.994;14.660;2022-11-15T16:25:52;47.47;;;14.15;;
71914;SDS011;60387;49.994;14.660;2022-11-15T16:28:28;53.20;;;15.35;;
71914;SDS011;60387;49.994;14.660;2022-11-15T16:31:08;89.60;;;32.33;;
71914;SDS011;60387;49.994;14.660;2022-11-15T16:33:42;38.75;;;14.55;;
71914;SDS011;60387;49.994;14.660;2022-11-15T16:36:20;43.88;;;15.18;;
71914;SDS011;60387;49.994;14.660;2022-11-15T16:38:58;43.65;;;14.07;;
71914;SDS011;60387;49.994;14.660;2022-11-15T16:41:32;51.78;;;12.45;;
71914;SDS011;60387;49.994;14.660;2022-11-15T16:44:05;44.73;;;13.60;;
71914;SDS011;60387;49.994;14.660;2022-11-15T16:46:40;60.03;;;15.60;;
71914;SDS011;60387;49.994;14.660;2022-11-15T16:49:14;46.55;;;15.90;;
71914;SDS011;60387;49.994;14.660;2022-11-15T16:51:48;53.43;;;15.57;;
71914;SDS011;60387;49.994;14.660;2022-11-15T16:54:22;45.78;;;14.75;;
71914;SDS011;60387;49.994;14.660;2022-11-15T16:56:55;50.37;;;13.97;;
71914;SDS011;60387;49.994;14.660;2022-11-15T16:59:28;43.67;;;12.30;;
71914;SDS011;60387;49.994;14.660;2022-11-15T17:02:01;33.83;;;11.90;;